Time;durP1;ratioP1;P1;durP2;ratioP2;P2;SDS_P1;SDS_P2;PMS_P1;PMS_P2;Temp;Humidity;BMP_temperature;BMP_pressure;BME280_temperature;BME280_humidity;BME280_pressure;Samples;Min_cycle;Max_cycle;Signal;HPM_P1;HPM_P2
2022/04/08 00:00:37;;;;;;;2.03;0.77;;;;;;;;;;5025356;28;20477;-86
2022/04/08 00:03:02;;;;;;;3.30;0.90;;;;;;;;;;5022730;28;20040;-86
2022/04/08 00:05:28;;;;;;;4.82;0.47;;;;;;;;;;5026465;28;20022;-80
2022/04/08 00:07:53;;;;;;;3.88;0.80;;;;;;;;;;5025974;28;20481;-80
2022/04/08 00:10:18;;;;;;;5.38;0.70;;;;;;;;;;5025002;28;20033;-85
2022/04/08 00:12:44;;;;;;;2.22;0.73;;;;;;;;;;5023466;28;20033;-81
2022/04/08 00:15:10;;;;;;;4.25;0.80;;;;;;;;;;5027976;28;20485;-85
2022/04/08 00:17:35;;;;;;;5.32;0.98;;;;;;;;;;5031951;28;20054;-85
2022/04/08 00:20:00;;;;;;;3.63;0.60;;;;;;;;;;5027802;28;20473;-81
2022/04/08 00:22:26;;;;;;;2.55;0.70;;;;;;;;;;5021339;28;20021;-86
2022/04/08 00:24:51;;;;;;;4.10;0.77;;;;;;;;;;5026137;28;20048;-80
2022/04/08 00:27:17;;;;;;;2.72;0.68;;;;;;;;;;5025855;28;20421;-80
2022/04/08 00:29:42;;;;;;;3.30;0.70;;;;;;;;;;5025718;28;20025;-86
2022/04/08 00:32:08;;;;;;;4.32;0.85;;;;;;;;;;5025757;28;20087;-80
2022/04/08 00:34:33;;;;;;;5.65;0.80;;;;;;;;;;5026382;28;20758;-86
2022/04/08 00:36:58;;;;;;;3.78;0.80;;;;;;;;;;5023934;28;20052;-81
2022/04/08 00:39:24;;;;;;;4.15;0.95;;;;;;;;;;5022909;28;20056;-85
2022/04/08 00:41:50;;;;;;;3.38;1.27;;;;;;;;;;5027972;28;20152;-80
2022/04/08 00:44:16;;;;;;;3.90;0.70;;;;;;;;;;5022447;28;20026;-87
2022/04/08 00:46:43;;;;;;;3.08;0.60;;;;;;;;;;5022174;28;20022;-84
2022/04/08 00:49:08;;;;;;;7.18;1.15;;;;;;;;;;5022293;28;20100;-86
2022/04/08 00:51:34;;;;;;;2.83;0.73;;;;;;;;;;5025386;28;20465;-86
2022/04/08 00:54:00;;;;;;;2.72;0.60;;;;;;;;;;5023987;28;20044;-85
2022/04/08 00:56:28;;;;;;;5.43;0.88;;;;;;;;;;5026898;28;20033;-85
2022/04/08 00:58:55;;;;;;;4.30;0.75;;;;;;;;;;5022988;28;20033;-87
2022/04/08 01:01:20;;;;;;;3.38;0.52;;;;;;;;;;5021308;28;20037;-81
2022/04/08 01:03:46;;;;;;;3.97;0.80;;;;;;;;;;5023622;28;20028;-85
2022/04/08 01:06:11;;;;;;;3.30;0.60;;;;;;;;;;5023736;28;20033;-86
2022/04/08 01:08:38;;;;;;;4.03;0.95;;;;;;;;;;5020651;28;20025;-84
2022/04/08 01:11:04;;;;;;;6.97;1.00;;;;;;;;;;5026939;28;20018;-86
2022/04/08 01:13:30;;;;;;;4.03;0.90;;;;;;;;;;5023409;28;20044;-83
2022/04/08 01:15:55;;;;;;;2.22;0.60;;;;;;;;;;5026106;28;20128;-85
2022/04/08 01:18:20;;;;;;;3.83;0.77;;;;;;;;;;5022933;28;20026;-81
2022/04/08 01:20:46;;;;;;;5.15;0.70;;;;;;;;;;5021022;28;20496;-86
2022/04/08 01:23:14;;;;;;;2.97;0.70;;;;;;;;;;5026727;28;21423;-86
2022/04/08 01:25:40;;;;;;;4.15;0.73;;;;;;;;;;5028432;28;20060;-82
2022/04/08 01:28:05;;;;;;;2.75;0.70;;;;;;;;;;5025383;28;20059;-81
2022/04/08 01:30:31;;;;;;;3.13;0.73;;;;;;;;;;5027399;28;20057;-81
2022/04/08 01:32:56;;;;;;;1.77;0.60;;;;;;;;;;5024263;28;20529;-84
2022/04/08 01:35:21;;;;;;;4.65;0.82;;;;;;;;;;5024920;28;20029;-86
2022/04/08 01:37:46;;;;;;;3.25;0.65;;;;;;;;;;5026451;28;20056;-86
2022/04/08 01:40:12;;;;;;;2.22;0.52;;;;;;;;;;5027475;28;20059;-85
2022/04/08 01:42:38;;;;;;;5.25;0.98;;;;;;;;;;5026200;28;20036;-86
2022/04/08 01:45:03;;;;;;;2.22;0.68;;;;;;;;;;5035034;28;20474;-81
2022/04/08 01:47:29;;;;;;;4.40;0.75;;;;;;;;;;5023526;28;20057;-81
2022/04/08 01:49:54;;;;;;;2.65;0.70;;;;;;;;;;5028470;28;20037;-87
2022/04/08 01:52:20;;;;;;;5.03;0.70;;;;;;;;;;5025241;28;20079;-80
2022/04/08 01:54:45;;;;;;;4.10;0.70;;;;;;;;;;5028986;28;20028;-86
2022/04/08 01:57:10;;;;;;;5.57;0.80;;;;;;;;;;5026681;28;20053;-85
2022/04/08 01:59:35;;;;;;;5.50;0.60;;;;;;;;;;5025515;28;20474;-80
2022/04/08 02:02:02;;;;;;;7.38;0.98;;;;;;;;;;5028983;28;20030;-84
2022/04/08 02:04:29;;;;;;;2.45;0.60;;;;;;;;;;5032001;28;20120;-81
2022/04/08 02:06:54;;;;;;;1.90;0.70;;;;;;;;;;5027040;28;20110;-86
2022/04/08 02:09:20;;;;;;;3.30;0.52;;;;;;;;;;5025499;28;20124;-80
2022/04/08 02:11:46;;;;;;;2.08;0.73;;;;;;;;;;5025641;28;20373;-85
2022/04/08 02:14:11;;;;;;;3.65;0.52;;;;;;;;;;5026562;28;20037;-86
2022/04/08 02:16:37;;;;;;;3.20;0.57;;;;;;;;;;5028799;28;20080;-86
2022/04/08 02:19:03;;;;;;;3.22;0.70;;;;;;;;;;5028985;28;20021;-85
2022/04/08 02:21:28;;;;;;;4.00;0.80;;;;;;;;;;5029257;28;20397;-80
2022/04/08 02:23:54;;;;;;;3.50;0.52;;;;;;;;;;5028572;28;20404;-80
2022/04/08 02:26:20;;;;;;;5.20;0.70;;;;;;;;;;5028317;28;20018;-80
2022/04/08 02:28:46;;;;;;;4.38;0.75;;;;;;;;;;5027555;28;20425;-87
2022/04/08 02:31:12;;;;;;;4.60;0.80;;;;;;;;;;5022963;28;20481;-84
2022/04/08 02:33:37;;;;;;;1.50;0.70;;;;;;;;;;5021987;28;20128;-86
2022/04/08 02:36:04;;;;;;;4.22;0.85;;;;;;;;;;5025547;28;20117;-85
2022/04/08 02:38:29;;;;;;;3.90;0.80;;;;;;;;;;5025952;28;20034;-86
2022/04/08 02:40:54;;;;;;;6.90;1.13;;;;;;;;;;5026032;28;20041;-81
2022/04/08 02:43:20;;;;;;;3.30;0.63;;;;;;;;;;5023897;28;20057;-81
2022/04/08 02:45:45;;;;;;;2.17;0.65;;;;;;;;;;5030931;28;20481;-87
2022/04/08 02:48:13;;;;;;;5.07;0.77;;;;;;;;;;5028791;28;20025;-81
2022/04/08 02:50:40;;;;;;;1.90;0.60;;;;;;;;;;5031620;28;20477;-82
2022/04/08 02:53:05;;;;;;;2.28;0.50;;;;;;;;;;5026065;28;20485;-86
2022/04/08 02:55:30;;;;;;;3.17;0.50;;;;;;;;;;5028313;28;20067;-80
2022/04/08 02:57:56;;;;;;;3.70;0.85;;;;;;;;;;5027301;28;20075;-87
2022/04/08 03:00:21;;;;;;;4.65;0.70;;;;;;;;;;5029947;28;20025;-85
2022/04/08 03:02:47;;;;;;;1.98;0.65;;;;;;;;;;5027663;28;20496;-80
2022/04/08 03:05:14;;;;;;;4.20;1.15;;;;;;;;;;5030364;28;20017;-86
2022/04/08 03:07:40;;;;;;;1.85;0.60;;;;;;;;;;5028810;28;20389;-80
2022/04/08 03:10:07;;;;;;;2.50;0.60;;;;;;;;;;5028299;28;20527;-87
2022/04/08 03:12:33;;;;;;;2.80;0.80;;;;;;;;;;5028240;28;20021;-81
2022/04/08 03:14:59;;;;;;;4.10;0.95;;;;;;;;;;5030472;28;20546;-82
2022/04/08 03:17:24;;;;;;;3.30;0.65;;;;;;;;;;5028594;28;20362;-84
2022/04/08 03:19:50;;;;;;;3.53;1.00;;;;;;;;;;5026998;28;20027;-86
2022/04/08 03:22:19;;;;;;;2.90;0.70;;;;;;;;;;5026757;28;20358;-86
2022/04/08 03:24:45;;;;;;;3.92;0.85;;;;;;;;;;5028485;28;20032;-87
2022/04/08 03:27:10;;;;;;;2.67;0.90;;;;;;;;;;5025611;28;20029;-80
2022/04/08 03:29:36;;;;;;;3.42;1.02;;;;;;;;;;5025692;28;20029;-80
2022/04/08 03:32:02;;;;;;;2.67;0.70;;;;;;;;;;5026939;28;20025;-81
2022/04/08 03:34:28;;;;;;;5.55;0.80;;;;;;;;;;5023752;28;20037;-86
2022/04/08 03:36:53;;;;;;;4.38;0.88;;;;;;;;;;5027465;28;20076;-86
2022/04/08 03:39:20;;;;;;;1.52;0.82;;;;;;;;;;5026452;28;20490;-85
2022/04/08 03:41:45;;;;;;;1.90;0.60;;;;;;;;;;5027172;28;20076;-87
2022/04/08 03:44:10;;;;;;;1.55;0.40;;;;;;;;;;5027168;28;20021;-87
2022/04/08 03:46:36;;;;;;;3.10;0.98;;;;;;;;;;5025563;28;20040;-86
2022/04/08 03:49:01;;;;;;;4.50;0.77;;;;;;;;;;5024759;28;20022;-86
2022/04/08 03:51:26;;;;;;;1.58;0.75;;;;;;;;;;5026170;28;20018;-86
2022/04/08 03:53:52;;;;;;;3.92;0.70;;;;;;;;;;5023681;28;20048;-86
2022/04/08 03:56:18;;;;;;;3.05;0.57;;;;;;;;;;5025757;28;20029;-86
2022/04/08 03:58:43;;;;;;;3.47;0.68;;;;;;;;;;5025060;28;20045;-87
2022/04/08 04:01:08;;;;;;;2.47;0.75;;;;;;;;;;5030368;28;20492;-81
2022/04/08 04:03:34;;;;;;;1.90;0.80;;;;;;;;;;5027353;28;20051;-80
2022/04/08 04:06:01;;;;;;;2.22;0.80;;;;;;;;;;5023741;28;20032;-86
2022/04/08 04:08:26;;;;;;;1.52;0.70;;;;;;;;;;5026076;28;20025;-81
2022/04/08 04:10:51;;;;;;;2.67;0.65;;;;;;;;;;5020493;28;20040;-86
2022/04/08 04:13:17;;;;;;;4.65;0.70;;;;;;;;;;5023017;28;20040;-81
2022/04/08 04:15:42;;;;;;;2.78;0.65;;;;;;;;;;5028373;28;20100;-86
2022/04/08 04:18:08;;;;;;;2.00;0.63;;;;;;;;;;5028229;28;20120;-87
2022/04/08 04:20:34;;;;;;;3.58;0.80;;;;;;;;;;5027791;28;20039;-84
2022/04/08 04:22:59;;;;;;;2.28;0.77;;;;;;;;;;5027281;28;20021;-85
2022/04/08 04:25:26;;;;;;;4.25;0.77;;;;;;;;;;5023669;28;20021;-86
2022/04/08 04:27:51;;;;;;;4.38;0.70;;;;;;;;;;5030343;28;20030;-86
2022/04/08 04:30:16;;;;;;;3.28;0.70;;;;;;;;;;5024395;28;20076;-81
2022/04/08 04:32:42;;;;;;;3.55;0.82;;;;;;;;;;5023541;28;20025;-87
2022/04/08 04:35:08;;;;;;;2.13;0.82;;;;;;;;;;5029971;28;20033;-87
2022/04/08 04:37:36;;;;;;;2.33;0.90;;;;;;;;;;5026125;28;20466;-81
2022/04/08 04:40:03;;;;;;;2.58;0.73;;;;;;;;;;5027681;28;20049;-86
2022/04/08 04:42:29;;;;;;;1.27;0.57;;;;;;;;;;5025331;28;20033;-81
2022/04/08 04:44:55;;;;;;;3.05;0.90;;;;;;;;;;5025518;28;20036;-80
2022/04/08 04:47:20;;;;;;;4.38;0.70;;;;;;;;;;5024604;28;20480;-82
2022/04/08 04:49:46;;;;;;;2.03;0.70;;;;;;;;;;5022875;28;20033;-86
2022/04/08 04:52:11;;;;;;;3.67;1.02;;;;;;;;;;5028336;28;20037;-81
2022/04/08 04:54:37;;;;;;;2.50;0.82;;;;;;;;;;5024501;28;20095;-87
2022/04/08 04:57:02;;;;;;;2.22;1.00;;;;;;;;;;5024785;28;20037;-86
2022/04/08 04:59:27;;;;;;;2.28;0.68;;;;;;;;;;5020651;28;20500;-85
2022/04/08 05:01:54;;;;;;;2.88;0.80;;;;;;;;;;5028146;28;20124;-80
2022/04/08 05:04:19;;;;;;;4.82;1.02;;;;;;;;;;5022256;28;20461;-86
2022/04/08 05:06:45;;;;;;;2.35;0.80;;;;;;;;;;5025998;28;20029;-81
2022/04/08 05:09:10;;;;;;;2.97;1.00;;;;;;;;;;5025451;28;20144;-81
2022/04/08 05:11:35;;;;;;;2.60;0.95;;;;;;;;;;5025209;28;20036;-80
2022/04/08 05:14:01;;;;;;;3.58;0.70;;;;;;;;;;5023402;28;20052;-82
2022/04/08 05:16:27;;;;;;;2.35;1.00;;;;;;;;;;5026648;28;20025;-86
2022/04/08 05:18:53;;;;;;;2.50;0.95;;;;;;;;;;5029863;28;20512;-88
2022/04/08 05:21:18;;;;;;;3.40;1.02;;;;;;;;;;5025864;28;20030;-81
2022/04/08 05:23:44;;;;;;;3.42;0.93;;;;;;;;;;5030762;28;20025;-86
2022/04/08 05:26:09;;;;;;;2.35;0.88;;;;;;;;;;5030474;28;20035;-81
2022/04/08 05:28:34;;;;;;;2.30;0.90;;;;;;;;;;5030475;28;20143;-81
2022/04/08 05:31:00;;;;;;;4.65;1.08;;;;;;;;;;5031630;28;20460;-87
2022/04/08 05:33:25;;;;;;;2.15;0.88;;;;;;;;;;5026231;28;20052;-86
2022/04/08 05:35:51;;;;;;;2.20;0.80;;;;;;;;;;5031295;28;20080;-88
2022/04/08 05:38:16;;;;;;;1.92;0.90;;;;;;;;;;5029137;28;20087;-81
2022/04/08 05:40:42;;;;;;;4.22;1.00;;;;;;;;;;5024407;28;20050;-81
2022/04/08 05:43:08;;;;;;;1.40;0.80;;;;;;;;;;5025164;28;20041;-82
2022/04/08 05:45:33;;;;;;;3.08;0.90;;;;;;;;;;5023450;28;20066;-87
2022/04/08 05:48:03;;;;;;;2.00;0.95;;;;;;;;;;5024252;28;20103;-80
2022/04/08 05:50:29;;;;;;;1.63;0.73;;;;;;;;;;5034185;28;20025;-87
2022/04/08 05:52:58;;;;;;;2.97;0.90;;;;;;;;;;5030815;28;20127;-87
2022/04/08 05:55:23;;;;;;;5.75;1.10;;;;;;;;;;5026467;28;20435;-87
2022/04/08 05:57:49;;;;;;;3.78;1.17;;;;;;;;;;5034350;28;20029;-87
2022/04/08 06:00:15;;;;;;;2.95;1.00;;;;;;;;;;5021758;28;20193;-83
2022/04/08 06:02:45;;;;;;;2.50;1.00;;;;;;;;;;5019735;28;20025;-82
2022/04/08 06:05:11;;;;;;;1.70;0.90;;;;;;;;;;5020716;28;20037;-86
2022/04/08 06:07:47;;;;;;;1.73;0.95;;;;;;;;;;5018839;28;20485;-87
2022/04/08 06:10:13;;;;;;;3.10;1.05;;;;;;;;;;5017640;28;20045;-81
2022/04/08 06:12:39;;;;;;;4.18;1.52;;;;;;;;;;5020797;28;20672;-87
2022/04/08 06:15:05;;;;;;;4.30;1.02;;;;;;;;;;5021810;28;20456;-81
2022/04/08 06:17:40;;;;;;;3.38;1.20;;;;;;;;;;5025415;28;20025;-84
2022/04/08 06:20:09;;;;;;;2.33;1.08;;;;;;;;;;5021099;28;20040;-86
2022/04/08 06:22:35;;;;;;;3.17;1.13;;;;;;;;;;5023172;28;20474;-82
2022/04/08 06:25:00;;;;;;;1.98;1.15;;;;;;;;;;5020385;28;20036;-82
2022/04/08 06:27:26;;;;;;;2.80;1.20;;;;;;;;;;5017625;28;20028;-81
2022/04/08 06:29:51;;;;;;;1.65;0.90;;;;;;;;;;5018463;28;20026;-85
2022/04/08 06:32:16;;;;;;;2.28;1.23;;;;;;;;;;5024629;28;20036;-86
2022/04/08 06:34:42;;;;;;;2.45;1.13;;;;;;;;;;5021526;28;20435;-86
2022/04/08 06:37:08;;;;;;;2.13;1.10;;;;;;;;;;5023987;28;20497;-82
2022/04/08 06:39:33;;;;;;;3.17;1.20;;;;;;;;;;5022441;28;20042;-84
2022/04/08 06:41:59;;;;;;;2.00;1.05;;;;;;;;;;5014954;28;20037;-85
2022/04/08 06:44:24;;;;;;;2.85;1.25;;;;;;;;;;5014339;28;20047;-85
2022/04/08 06:46:49;;;;;;;3.92;1.10;;;;;;;;;;5022192;28;20079;-85
2022/04/08 06:49:15;;;;;;;2.72;1.23;;;;;;;;;;5025315;28;20080;-85
2022/04/08 06:51:40;;;;;;;3.92;1.20;;;;;;;;;;5025926;28;20014;-80
2022/04/08 06:54:05;;;;;;;4.07;1.10;;;;;;;;;;5027390;28;20037;-81
2022/04/08 06:56:31;;;;;;;5.13;1.25;;;;;;;;;;5024040;28;20032;-85
2022/04/08 06:58:56;;;;;;;2.35;1.08;;;;;;;;;;5027389;28;20491;-80
2022/04/08 07:01:23;;;;;;;2.83;1.27;;;;;;;;;;5027616;28;20030;-81
2022/04/08 07:03:48;;;;;;;3.17;1.17;;;;;;;;;;5030249;28;21975;-85
2022/04/08 07:06:14;;;;;;;3.92;1.15;;;;;;;;;;5027554;28;20030;-85
2022/04/08 07:08:39;;;;;;;3.38;1.30;;;;;;;;;;5024940;28;20017;-84
2022/04/08 07:11:04;;;;;;;1.80;1.10;;;;;;;;;;5028886;28;20142;-82
2022/04/08 07:13:30;;;;;;;1.58;0.93;;;;;;;;;;5024448;28;20033;-85
2022/04/08 07:15:55;;;;;;;4.60;1.60;;;;;;;;;;5027342;28;20021;-85
2022/04/08 07:18:21;;;;;;;3.40;1.50;;;;;;;;;;5027716;28;20044;-81
2022/04/08 07:20:47;;;;;;;2.17;1.30;;;;;;;;;;5029881;28;20622;-86
2022/04/08 07:23:12;;;;;;;2.97;1.48;;;;;;;;;;5027302;28;20034;-81
2022/04/08 07:25:39;;;;;;;3.35;1.58;;;;;;;;;;5027180;28;20021;-86
2022/04/08 07:28:04;;;;;;;4.35;1.58;;;;;;;;;;5027893;28;20400;-85
2022/04/08 07:30:30;;;;;;;2.35;1.38;;;;;;;;;;5027329;28;20063;-85
2022/04/08 07:32:55;;;;;;;3.75;1.50;;;;;;;;;;5025609;28;20029;-81
2022/04/08 07:35:23;;;;;;;5.28;1.75;;;;;;;;;;5030490;28;20028;-81
2022/04/08 07:37:48;;;;;;;3.78;1.63;;;;;;;;;;5027881;28;20040;-80
2022/04/08 07:40:14;;;;;;;3.28;1.75;;;;;;;;;;5031112;28;20456;-81
2022/04/08 07:42:40;;;;;;;3.03;1.70;;;;;;;;;;5030286;28;20033;-80
2022/04/08 07:45:06;;;;;;;4.55;1.60;;;;;;;;;;5029151;28;20025;-87
2022/04/08 07:47:32;;;;;;;4.30;2.00;;;;;;;;;;5032551;28;20022;-85
2022/04/08 07:49:58;;;;;;;4.00;1.80;;;;;;;;;;5027594;28;20033;-86
2022/04/08 07:52:25;;;;;;;3.45;1.70;;;;;;;;;;5030601;28;20424;-87
2022/04/08 07:54:51;;;;;;;4.22;1.63;;;;;;;;;;5029757;28;20022;-87
2022/04/08 07:57:16;;;;;;;7.30;2.13;;;;;;;;;;5030719;28;20033;-86
2022/04/08 07:59:42;;;;;;;4.75;2.13;;;;;;;;;;5026052;28;20429;-80
2022/04/08 08:02:07;;;;;;;7.18;2.03;;;;;;;;;;5030479;28;20041;-85
2022/04/08 08:04:33;;;;;;;4.53;2.03;;;;;;;;;;5030772;28;20033;-86
2022/04/08 08:06:58;;;;;;;3.42;1.70;;;;;;;;;;5026565;28;20060;-86
2022/04/08 08:09:23;;;;;;;3.00;1.92;;;;;;;;;;5029531;28;20168;-81
2022/04/08 08:11:49;;;;;;;6.40;2.08;;;;;;;;;;5026890;28;20538;-80
2022/04/08 08:14:15;;;;;;;5.10;1.98;;;;;;;;;;5028568;28;20059;-86
2022/04/08 08:16:40;;;;;;;4.35;1.95;;;;;;;;;;5024970;28;20026;-86
2022/04/08 08:19:06;;;;;;;4.40;1.90;;;;;;;;;;5024608;28;20037;-81
2022/04/08 08:21:31;;;;;;;4.80;2.35;;;;;;;;;;5028968;28;20496;-82
2022/04/08 08:23:56;;;;;;;3.65;2.08;;;;;;;;;;5027340;28;20501;-81
2022/04/08 08:26:22;;;;;;;3.95;1.83;;;;;;;;;;5027931;28;20025;-86
2022/04/08 08:28:47;;;;;;;6.88;1.85;;;;;;;;;;5027715;28;20025;-86
2022/04/08 08:31:15;;;;;;;4.05;1.85;;;;;;;;;;5028886;28;20427;-81
2022/04/08 08:33:43;;;;;;;3.42;1.80;;;;;;;;;;5026569;28;20024;-81
2022/04/08 08:36:08;;;;;;;3.67;2.28;;;;;;;;;;5026623;28;20042;-86
2022/04/08 08:38:34;;;;;;;4.85;2.20;;;;;;;;;;5023989;28;20036;-81
2022/04/08 08:40:59;;;;;;;4.72;2.15;;;;;;;;;;5028684;28;20136;-80
2022/04/08 08:43:25;;;;;;;4.03;1.95;;;;;;;;;;5029519;28;20029;-86
2022/04/08 08:45:50;;;;;;;5.80;1.88;;;;;;;;;;5029562;28;20469;-81
2022/04/08 08:48:16;;;;;;;4.97;2.13;;;;;;;;;;5028027;28;20022;-81
2022/04/08 08:50:52;;;;;;;4.97;2.38;;;;;;;;;;5029173;28;20100;-80
2022/04/08 08:53:19;;;;;;;3.10;1.75;;;;;;;;;;5026608;28;20053;-87
2022/04/08 08:55:50;;;;;;;4.65;1.60;;;;;;;;;;5028939;28;20029;-87
2022/04/08 08:58:16;;;;;;;3.10;1.88;;;;;;;;;;5026747;28;20033;-86
2022/04/08 09:00:42;;;;;;;4.75;1.95;;;;;;;;;;5029639;28;20029;-86
2022/04/08 09:03:09;;;;;;;2.88;1.35;;;;;;;;;;5026167;28;20037;-81
2022/04/08 09:05:45;;;;;;;2.60;1.50;;;;;;;;;;5028993;28;20117;-87
2022/04/08 09:08:13;;;;;;;3.55;1.30;;;;;;;;;;5025140;28;20033;-81
2022/04/08 09:10:40;;;;;;;5.07;1.60;;;;;;;;;;5028472;28;20033;-81
2022/04/08 09:13:07;;;;;;;3.15;1.60;;;;;;;;;;5029351;28;20436;-86
2022/04/08 09:15:39;;;;;;;5.47;1.52;;;;;;;;;;5027104;28;20084;-81
2022/04/08 09:18:12;;;;;;;7.30;1.80;;;;;;;;;;5026091;28;20128;-81
2022/04/08 09:20:43;;;;;;;3.50;1.83;;;;;;;;;;5025087;28;20021;-81
2022/04/08 09:23:10;;;;;;;3.60;1.65;;;;;;;;;;5025744;28;20029;-81
2022/04/08 09:25:35;;;;;;;3.78;1.63;;;;;;;;;;5026888;28;20030;-80
2022/04/08 09:28:09;;;;;;;3.72;2.05;;;;;;;;;;5025407;28;20079;-86
2022/04/08 09:30:35;;;;;;;3.00;1.67;;;;;;;;;;5031222;28;20029;-81
2022/04/08 09:33:21;;;;;;;3.80;1.75;;;;;;;;;;5026057;28;20527;-81
2022/04/08 09:35:47;;;;;;;2.72;1.33;;;;;;;;;;5026689;28;20029;-87
2022/04/08 09:38:18;;;;;;;4.88;1.55;;;;;;;;;;5024961;28;20044;-81
2022/04/08 09:40:43;;;;;;;2.60;1.30;;;;;;;;;;5026555;28;20103;-86
2022/04/08 09:43:09;;;;;;;3.15;1.50;;;;;;;;;;5026459;28;20029;-81
2022/04/08 09:45:38;;;;;;;4.25;1.80;;;;;;;;;;5024468;28;20366;-87
2022/04/08 09:48:05;;;;;;;3.25;1.30;;;;;;;;;;5026450;28;20021;-81
2022/04/08 09:50:31;;;;;;;2.88;1.40;;;;;;;;;;5026913;28;20079;-81
2022/04/08 09:53:01;;;;;;;5.80;1.60;;;;;;;;;;5024530;28;20496;-86
2022/04/08 09:55:28;;;;;;;4.30;1.67;;;;;;;;;;5030511;28;20035;-81
2022/04/08 09:58:04;;;;;;;2.30;1.30;;;;;;;;;;5027785;28;20033;-86
2022/04/08 10:00:31;;;;;;;4.35;1.52;;;;;;;;;;5029130;28;20481;-81
2022/04/08 10:03:01;;;;;;;5.18;1.65;;;;;;;;;;5029549;28;20120;-81
2022/04/08 10:05:28;;;;;;;2.75;1.50;;;;;;;;;;5025454;28;20029;-85
2022/04/08 10:07:55;;;;;;;3.88;1.70;;;;;;;;;;5031314;28;20034;-86
2022/04/08 10:10:33;;;;;;;7.68;1.70;;;;;;;;;;5029121;28;20026;-82
2022/04/08 10:13:04;;;;;;;4.68;1.67;;;;;;;;;;5023977;28;20440;-86
2022/04/08 10:15:43;;;;;;;4.63;1.90;;;;;;;;;;5027565;28;20051;-86
2022/04/08 10:18:08;;;;;;;6.68;1.95;;;;;;;;;;5029082;28;20029;-82
2022/04/08 10:20:35;;;;;;;3.60;1.70;;;;;;;;;;5028516;28;20437;-86
2022/04/08 10:23:09;;;;;;;4.78;1.80;;;;;;;;;;5024603;28;20034;-81
2022/04/08 10:25:50;;;;;;;9.48;2.17;;;;;;;;;;5040701;28;20307;-81
2022/04/08 10:28:15;;;;;;;6.47;1.95;;;;;;;;;;5028489;28;20029;-81
2022/04/08 10:30:49;;;;;;;3.95;2.10;;;;;;;;;;5026178;28;20052;-87
2022/04/08 10:33:29;;;;;;;3.00;1.92;;;;;;;;;;5025613;28;20033;-84
2022/04/08 10:35:59;;;;;;;4.25;1.92;;;;;;;;;;5029175;28;20029;-81
2022/04/08 10:38:34;;;;;;;4.15;2.00;;;;;;;;;;5028611;28;20086;-85
2022/04/08 10:41:00;;;;;;;4.32;1.98;;;;;;;;;;5023422;28;20511;-81
2022/04/08 10:43:26;;;;;;;5.43;2.28;;;;;;;;;;5028089;28;20056;-85
2022/04/08 10:45:57;;;;;;;5.07;2.13;;;;;;;;;;5029217;28;20026;-87
2022/04/08 10:48:30;;;;;;;3.70;2.03;;;;;;;;;;5028604;28;20596;-86
2022/04/08 10:51:13;;;;;;;5.30;2.47;;;;;;;;;;5025208;28;20085;-83
2022/04/08 10:53:42;;;;;;;5.03;2.28;;;;;;;;;;5022059;28;20041;-81
2022/04/08 10:56:13;;;;;;;5.00;2.33;;;;;;;;;;5023332;28;20112;-86
2022/04/08 10:58:46;;;;;;;4.10;2.13;;;;;;;;;;5029666;28;20044;-81
2022/04/08 11:01:21;;;;;;;5.38;1.90;;;;;;;;;;5028565;28;20069;-86
2022/04/08 11:03:57;;;;;;;5.32;2.25;;;;;;;;;;5027745;28;20037;-86
2022/04/08 11:06:25;;;;;;;6.65;2.80;;;;;;;;;;5023408;28;20544;-80
2022/04/08 11:08:51;;;;;;;5.50;2.40;;;;;;;;;;5030577;28;20032;-81
2022/04/08 11:11:26;;;;;;;6.35;2.67;;;;;;;;;;5031225;28;20026;-86
2022/04/08 11:13:56;;;;;;;5.07;2.20;;;;;;;;;;5027552;28;20025;-85
2022/04/08 11:16:21;;;;;;;4.53;2.28;;;;;;;;;;5028371;28;20161;-85
2022/04/08 11:18:48;;;;;;;6.40;2.28;;;;;;;;;;5028445;28;20045;-80
2022/04/08 11:21:23;;;;;;;3.78;2.00;;;;;;;;;;5032815;28;20032;-86
2022/04/08 11:23:59;;;;;;;3.97;2.15;;;;;;;;;;5033197;28;20047;-80
2022/04/08 11:26:27;;;;;;;5.80;2.38;;;;;;;;;;5031926;28;20029;-85
2022/04/08 11:28:53;;;;;;;3.38;2.08;;;;;;;;;;5023063;28;20033;-80
2022/04/08 11:31:19;;;;;;;7.18;2.00;;;;;;;;;;5030089;28;20428;-86
2022/04/08 11:33:44;;;;;;;3.30;1.88;;;;;;;;;;5031840;28;20025;-80
2022/04/08 11:36:10;;;;;;;5.38;2.35;;;;;;;;;;5035020;28;20029;-80
2022/04/08 11:38:35;;;;;;;3.55;1.80;;;;;;;;;;5029735;28;20029;-86
2022/04/08 11:41:02;;;;;;;4.97;2.05;;;;;;;;;;5026993;28;20057;-80
2022/04/08 11:43:28;;;;;;;3.88;1.75;;;;;;;;;;5029512;28;20025;-80
2022/04/08 11:45:53;;;;;;;5.20;2.15;;;;;;;;;;5030485;28;20092;-85
2022/04/08 11:48:23;;;;;;;7.03;2.10;;;;;;;;;;5027173;28;20021;-85
2022/04/08 11:50:49;;;;;;;4.60;2.10;;;;;;;;;;5032743;28;20504;-85
2022/04/08 11:53:21;;;;;;;4.35;1.67;;;;;;;;;;5035002;28;20040;-85
2022/04/08 11:56:03;;;;;;;3.70;1.83;;;;;;;;;;5026511;28;20621;-81
2022/04/08 11:58:30;;;;;;;3.08;1.88;;;;;;;;;;5027073;28;20180;-81
2022/04/08 12:00:59;;;;;;;5.60;1.98;;;;;;;;;;5028842;28;20093;-86
2022/04/08 12:03:30;;;;;;;2.92;1.75;;;;;;;;;;5032233;28;20121;-81
2022/04/08 12:05:56;;;;;;;5.43;1.90;;;;;;;;;;5028766;28;20118;-80
2022/04/08 12:08:22;;;;;;;4.53;1.88;;;;;;;;;;5032310;28;20059;-81
2022/04/08 12:10:57;;;;;;;3.58;1.70;;;;;;;;;;5028687;28;20068;-86
2022/04/08 12:13:24;;;;;;;2.15;1.40;;;;;;;;;;5029326;28;20477;-85
2022/04/08 12:15:54;;;;;;;3.58;1.55;;;;;;;;;;5031084;28;20040;-86
2022/04/08 12:18:21;;;;;;;4.93;2.00;;;;;;;;;;5031030;28;20083;-86
2022/04/08 12:20:52;;;;;;;2.75;1.73;;;;;;;;;;5030268;28;20022;-80
2022/04/08 12:23:22;;;;;;;4.28;1.75;;;;;;;;;;5027486;28;20026;-86
2022/04/08 12:25:56;;;;;;;4.95;1.80;;;;;;;;;;5029305;28;20076;-80
2022/04/08 12:28:24;;;;;;;3.95;2.10;;;;;;;;;;5031316;28;20469;-80
2022/04/08 12:30:52;;;;;;;4.45;2.03;;;;;;;;;;5031289;28;20033;-85
2022/04/08 12:33:18;;;;;;;3.78;1.90;;;;;;;;;;5029214;28;20157;-85
2022/04/08 12:35:48;;;;;;;2.80;1.70;;;;;;;;;;5030140;28;20060;-86
2022/04/08 12:38:25;;;;;;;4.35;1.80;;;;;;;;;;5026500;28;20030;-80
2022/04/08 12:40:50;;;;;;;2.95;1.95;;;;;;;;;;5027543;28;20051;-80
2022/04/08 12:43:16;;;;;;;3.42;2.00;;;;;;;;;;5026040;28;20053;-80
2022/04/08 12:45:42;;;;;;;4.35;1.92;;;;;;;;;;5030775;28;20036;-79
2022/04/08 12:48:08;;;;;;;5.30;1.70;;;;;;;;;;5028601;28;20026;-81
2022/04/08 12:50:33;;;;;;;3.70;1.83;;;;;;;;;;5028751;28;20515;-85
2022/04/08 12:53:00;;;;;;;2.95;1.77;;;;;;;;;;5026117;28;20116;-80
2022/04/08 12:55:26;;;;;;;3.85;2.00;;;;;;;;;;5026219;28;20083;-80
2022/04/08 12:57:51;;;;;;;3.97;1.85;;;;;;;;;;5023990;28;20037;-80
2022/04/08 13:00:18;;;;;;;3.00;1.83;;;;;;;;;;5025368;28;20127;-85
2022/04/08 13:02:45;;;;;;;2.20;1.60;;;;;;;;;;5026614;28;20030;-81
2022/04/08 13:05:11;;;;;;;5.38;1.95;;;;;;;;;;5028352;28;20042;-85
2022/04/08 13:07:36;;;;;;;4.60;1.92;;;;;;;;;;5029305;28;20047;-81
2022/04/08 13:10:05;;;;;;;5.75;1.85;;;;;;;;;;5026944;28;20033;-85
2022/04/08 13:12:32;;;;;;;3.78;2.13;;;;;;;;;;5023735;28;20030;-85
2022/04/08 13:14:58;;;;;;;4.25;1.90;;;;;;;;;;5030003;28;20053;-81
2022/04/08 13:17:23;;;;;;;5.00;2.22;;;;;;;;;;5030981;28;20063;-85
2022/04/08 13:19:48;;;;;;;5.68;2.00;;;;;;;;;;5035150;28;20029;-84
2022/04/08 13:22:14;;;;;;;4.50;1.80;;;;;;;;;;5030305;28;20041;-86
2022/04/08 13:24:40;;;;;;;3.55;1.63;;;;;;;;;;5032406;28;20030;-80
2022/04/08 13:27:05;;;;;;;3.00;1.60;;;;;;;;;;5033420;28;20029;-84
2022/04/08 13:29:31;;;;;;;4.20;1.73;;;;;;;;;;5026484;28;20734;-86
2022/04/08 13:31:56;;;;;;;3.92;1.88;;;;;;;;;;5028258;28;20033;-81
2022/04/08 13:34:21;;;;;;;3.58;1.58;;;;;;;;;;5031929;28;20116;-82
2022/04/08 13:36:47;;;;;;;2.72;1.15;;;;;;;;;;5033431;28;20032;-80
2022/04/08 13:39:12;;;;;;;1.80;1.00;;;;;;;;;;5033375;28;20037;-81
2022/04/08 13:41:38;;;;;;;3.97;1.30;;;;;;;;;;5033425;28;20030;-80
2022/04/08 13:44:03;;;;;;;3.90;1.30;;;;;;;;;;5028043;28;20045;-85
2022/04/08 13:46:28;;;;;;;1.65;0.73;;;;;;;;;;5031015;28;20025;-80
2022/04/08 13:48:56;;;;;;;1.58;1.00;;;;;;;;;;5027773;28;20168;-87
2022/04/08 13:51:26;;;;;;;2.90;0.73;;;;;;;;;;5032167;28;20380;-80
2022/04/08 13:53:52;;;;;;;2.30;0.73;;;;;;;;;;5027096;28;20025;-86
2022/04/08 13:56:17;;;;;;;3.42;0.80;;;;;;;;;;5031616;28;20018;-87
2022/04/08 13:58:43;;;;;;;2.75;0.65;;;;;;;;;;5029093;28;20788;-80
2022/04/08 14:01:08;;;;;;;1.23;0.80;;;;;;;;;;5013905;28;20128;-81
2022/04/08 14:03:34;;;;;;;1.83;0.90;;;;;;;;;;5027347;28;20025;-82
2022/04/08 14:06:01;;;;;;;2.67;0.90;;;;;;;;;;5028652;28;20037;-85
2022/04/08 14:08:27;;;;;;;3.65;1.17;;;;;;;;;;5034867;28;20521;-84
2022/04/08 14:10:53;;;;;;;5.30;1.20;;;;;;;;;;5032641;28;20128;-82
2022/04/08 14:13:36;;;;;;;1.65;0.98;;;;;;;;;;5029525;28;20330;-82
2022/04/08 14:16:02;;;;;;;4.38;1.10;;;;;;;;;;5031546;28;20061;-81
2022/04/08 14:18:28;;;;;;;2.35;1.05;;;;;;;;;;5031908;28;20033;-82
2022/04/08 14:20:55;;;;;;;4.18;1.30;;;;;;;;;;5029213;28;20034;-85
2022/04/08 14:23:21;;;;;;;2.72;1.05;;;;;;;;;;5025908;28;20482;-81
2022/04/08 14:25:49;;;;;;;3.35;1.15;;;;;;;;;;5024093;28;20048;-83
2022/04/08 14:28:26;;;;;;;3.00;1.00;;;;;;;;;;5026106;28;20105;-83
2022/04/08 14:30:54;;;;;;;2.70;1.10;;;;;;;;;;5028023;28;20492;-85
2022/04/08 14:33:20;;;;;;;1.40;0.93;;;;;;;;;;5024505;28;20028;-87
2022/04/08 14:35:49;;;;;;;1.75;0.73;;;;;;;;;;5024898;28;20033;-85
2022/04/08 14:38:28;;;;;;;1.17;0.55;;;;;;;;;;5030353;28;20060;-83
2022/04/08 14:40:55;;;;;;;1.95;0.45;;;;;;;;;;5028617;28;20062;-82